Impacts TAF Board INFO
FOR SITUATIONAL AWARENESS. NOT TO BE USED FOR FLIGHT PLANNING PURPOSES.
IDs:

KFLL - Ft Lauderdale-Hollyw, FL, US

Issued at 1500 UTC 14 Dec 2017
Updated at 1709 UTC 14 Dec 2017
Potential Impact None Slight Moderate High
Time1653Z 14/18Z 14/19Z 14/20Z 14/21Z 14/22Z 14/23Z 15/00Z 15/01Z 15/02Z 15/03Z 15/04Z 15/05Z 15/06Z>>
Type OBS PRVL PRVL PRVL PRVL PRVL PRVL PRVL PRVL PRVL PRVL PRVL PRVL PRVL
VIS 10 >6 >6 >6 >6 >6 >6 >6 >6 >6 >6 >6 >6 >6
CIG -- -- -- -- -- -- -- -- -- -- -- -- -- --
Cover CLR SKC SKC SKC SKC SKC SKC SKC SKC SKC SKC SKC SKC SKC
FltCat VFR VFR VFR VFR VFR VFR VFR VFR VFR VFR VFR VFR VFR VFR
WX -- -- -- -- -- -- -- -- -- -- -- -- -- --
WDir VRB 140 140 140 140 140 140 VRB VRB VRB VRB VRB VRB VRB
WSpd 3 5 5 5 5 5 5 3 3 3 3 3 3 3
WGst -- -- -- -- -- -- -- -- -- -- -- -- -- --

Raw TAF
KFLL 141500Z 1415/1518 VRB05KT P6SM SKC
  FM141700 14005KT P6SM SKC
  FM150000 VRB03KT P6SM SKC
  FM151500 13005KT P6SM FEW045


Raw METAR
KFLL 141653Z VRB03KT 10SM CLR 20/06 A3010 RMK AO2 SLP192 T02000056
KFLL 141553Z 30005KT 10SM CLR 18/06 A3013 RMK AO2 SLP201 T01780061
KFLL 141453Z 35005KT 10SM CLR 17/07 A3013 RMK AO2 SLP202 T01670072 53017

METAR Board
Radar Display
Forecast Discussion

FOR SITUATIONAL AWARENESS. NOT TO BE USED FOR FLIGHT PLANNING PURPOSES.